Riverside, Michigan
Current Conditions -  °F | °C
As of 11:25 AM on Thursday 27 Nov 2014 (Local Time) from KBEH Reporting Station
Light Snow Light Snow  
Wind Chill: 20°   Ceiling: 2000
Heat Index: 31°   Visibility: 2mi
Dew Point: 26°   Wind: 16mph
Humidity: 82%   Direction: 300°WNW
Pressure: 30.25"   Gusts: 25mph
Location:  42.18°N, 86.36°W
Report Text: KBEH 271625Z AUTO 30014G22KT 2SM -SN SCT015 BKN020 OVC047 M01/M03 A3025 RMK AO2 P0000 T10061033
Loading
Personal Weather Stations






























Interactive Weather Map New forecast layout! Learn more

10-Day Weather Forecast

Advertisements
Track Severe Weather on mobile